Latest Coastal Weather Observations for Cape Leeuwin

IDW60701

Issued at 6:13 pm WST Thursday 30 June 2016 (issued every 10 minutes, with the page automatically refreshed every 10 minutes)

About coastal observations | Map of coastal stations | Coastal observations for WA | Marine services | Other Formats
Station Details ID: 009518 Name: CAPE LEEUWIN Lat: -34.37 Lon: 115.14 Height: 13.0 m
Data from the previous 72 hours. | See also: Recent months at Cape Leeuwin
Date/Time
WST
Temp
°C
Wind Pressure Rain since
9am
mm
Weather Cloud Vis
km
Sea
Height
m
Swell
Dir  Spd
kts
Gust
kts
hPa Trend Height
m
Period
s
Dir
30/06:00pm 15.9 WNW 17 20 1024.8 - 0.4 - - - - - - -
30/05:30pm 15.8 W 16 20 1024.7 - 0.4 - - - - - - -
30/05:00pm 16.1 W 15 17 1024.4 - 0.4 - - - - - - -
30/04:30pm 16.5 WNW 16 21 1024.2 - 0.4 - - - - - - -
30/04:00pm 16.9 WNW 14 19 1023.9 - 0.4 - - - - - - -
30/03:30pm 15.5 NW 14 16 1023.8 - 0.4 - - - - - - -
30/03:00pm 16.5 WNW 13 17 1023.5 - 0.4 - - - - - - -
30/02:30pm 16.4 W 18 21 1023.5 - 0.4 - - - - - - -
30/02:00pm 16.6 W 16 18 1023.4 - 0.4 - - - - - - -
30/01:30pm 16.8 W 16 19 1023.7 - 0.4 - - - - - - -
30/01:26pm 16.6 WNW 15 19 1023.8 - 0.4 - - - - - - -
30/01:00pm 17.2 NW 6 8 1024.1 - 0.4 - - - - - - -
30/12:30pm 15.7 WNW 15 19 1024.2 - 0.4 - - - - - - -
30/12:00pm 15.8 NW 14 16 1024.8 - 0.4 - - - - - - -
30/11:30am 15.7 W 15 23 1025.2 - 0.4 - - - - - - -
30/11:00am 14.8 NW 14 19 1025.7 - 0.4 - - - - - - -
30/10:30am 14.8 WNW 13 18 1026.1 - 0.4 - - - - - - -
30/10:01am 15.3 WNW 15 25 1025.8 - 0.2 - - - - - - -
30/10:00am 15.2 WNW 14 25 1025.8 - 0.2 - - - - - - -
30/09:30am 14.6 WNW 13 18 1025.7 - 0.2 - - - - - - -
30/09:00am 15.7 WNW 16 19 1025.3 - 0.8 - - - - - - -
30/08:30am 15.7 WNW 17 19 1025.1 - 0.8 - - - - - - -
30/08:00am 15.5 W 16 20 1024.8 - 0.8 - - - - - - -
30/07:30am 15.9 W 15 19 1024.4 - 0.8 - - - - - - -
30/07:00am 15.7 W 17 19 1024.2 - 0.8 - - - - - - -
30/06:30am 15.7 W 16 20 1023.9 - 0.8 - - - - - - -
30/06:00am 15.7 W 16 19 1023.7 - 0.8 - - - - - - -
30/05:30am 15.6 W 17 20 1023.5 - 0.8 - - - - - - -
30/05:00am 15.6 WNW 14 17 1023.3 - 0.8 - - - - - - -
30/04:30am 15.3 WNW 16 20 1023.3 - 0.8 - - - - - - -
30/04:00am 15.3 WNW 18 21 1023.2 - 0.8 - - - - - - -
30/03:30am 15.4 WNW 17 19 1023.4 - 0.8 - - - - - - -
30/03:00am 15.2 WNW 18 22 1023.4 - 0.8 - - - - - - -
30/02:30am 15.2 W 9 16 1023.5 - 0.8 - - - - - - -
30/02:00am 13.6 SW 6 9 1023.6 - 0.8 - - - - - - -
30/01:30am 14.4 WSW 13 23 1023.5 - 0.4 - - - - - - -
30/01:13am 14.5 WSW 13 17 1023.3 - 0.4 - - - - - - -
30/01:00am 15.2 WSW 21 25 1023.0 - 0.4 - - - - - - -
30/12:30am 15.5 WSW 18 21 1023.1 - 0.4 - - - - - - -
30/12:00am 15.7 W 19 23 1023.1 - 0.4 - - - - - - -
 
Date/Time
WST
Temp
°C
Wind Pressure Rain since
9am
mm
Weather Cloud Vis
km
Sea
Height
m
Swell
Dir  Spd
kts
Gust
kts
hPa Trend Height
m
Period
s
Dir
29/11:30pm 16.2 W 15 18 1022.9 - 0.4 - - - - - - -
29/11:00pm 16.2 W 13 17 1022.8 - 0.4 - - - - - - -
29/10:30pm 15.8 WNW 17 20 1022.8 - 0.4 - - - - - - -
29/10:00pm 15.9 W 15 18 1022.7 - 0.4 - - - - - - -
29/09:30pm 16.0 W 16 19 1022.5 - 0.4 - - - - - - -
29/09:00pm 15.8 W 16 20 1022.6 - 0.4 - - - - - - -
29/08:30pm 15.5 WSW 16 19 1022.3 - 0.4 - - - - - - -
29/08:00pm 15.6 WSW 19 24 1022.0 - 0.4 - - - - - - -
29/07:30pm 15.5 WSW 14 18 1021.9 - 0.4 - - - - - - -
29/07:00pm 15.3 WSW 20 23 1021.5 - 0.4 - - - - - - -
29/06:30pm 15.4 WSW 19 21 1021.1 - 0.4 - - - - - - -
29/06:00pm 15.6 WSW 16 21 1020.6 - 0.4 - - - - - - -
29/05:30pm 15.4 WSW 12 16 1020.4 - 0.4 - - - - - - -
29/05:00pm 15.3 WSW 14 19 1020.2 - 0.4 - - - - - - -
29/04:30pm 15.9 WSW 17 23 1019.9 - 0.4 - - - - - - -
29/04:00pm 16.1 WSW 18 22 1019.5 - 0.4 - - - - - - -
29/03:30pm 16.3 WSW 22 26 1019.1 - 0.4 - - - - - - -
29/03:00pm 16.4 WSW 20 24 1018.7 - 0.4 - - - - - - -
29/02:30pm 15.9 WSW 16 19 1018.3 - 0.4 - - - - - - -
29/02:00pm 15.9 SW 17 20 1018.3 - 0.4 - - - - - - -
29/01:30pm 16.5 WSW 18 22 1018.1 - 0.2 - - - - - - -
29/01:00pm 17.0 WSW 19 22 1018.1 - 0.2 - - - - - - -
29/12:30pm 16.7 WSW 20 23 1018.1 - 0.2 - - - - - - -
29/12:00pm 16.3 WSW 21 25 1018.1 - 0.2 - - - - - - -
29/11:30am 15.9 WSW 21 25 1018.0 - 0.2 - - - - - - -
29/11:00am 15.8 WSW 21 25 1017.9 - 0.2 - - - - - - -
29/10:30am 15.7 WSW 20 27 1017.3 - 0.2 - - - - - - -
29/10:00am 14.6 WSW 20 29 1017.1 - 0.2 - - - - - - -
29/09:59am 14.9 WSW 19 29 1017.0 - 0.0 - - - - - - -
29/09:58am 15.5 WSW 19 26 1017.1 - 0.0 - - - - - - -
29/09:30am 16.3 WSW 14 16 1016.8 - 0.0 - - - - - - -
29/09:00am 15.3 WSW 11 18 1016.4 - 7.0 - - - - - - -
29/08:30am 14.8 WSW 12 14 1016.1 - 7.0 - - - - - - -
29/08:00am 14.3 WSW 11 13 1015.9 - 7.0 - - - - - - -
29/07:30am 14.1 WSW 12 15 1015.5 - 7.0 - - - - - - -
29/07:00am 13.8 SW 12 14 1015.2 - 7.0 - - - - - - -
29/06:30am 13.6 SW 13 16 1014.7 - 7.0 - - - - - - -
29/06:00am 13.8 SW 18 22 1014.1 - 7.0 - - - - - - -
29/05:30am 14.3 SW 14 16 1013.4 - 7.0 - - - - - - -
29/05:00am 14.2 WSW 13 16 1013.1 - 7.0 - - - - - - -
29/04:30am 14.0 SW 13 15 1012.9 - 7.0 - - - - - - -
29/04:00am 14.0 SW 11 13 1012.7 - 7.0 - - - - - - -
29/03:30am 14.0 SW 13 16 1012.5 - 7.0 - - - - - - -
29/03:00am 13.8 SW 23 31 1012.3 - 7.0 Rain - - - - - -
29/02:49am 14.8 WSW 18 28 1012.1 - 6.6 - - - - - - -
29/02:30am 14.6 WSW 17 19 1012.0 - 6.4 - - - - - - -
29/02:00am 14.2 WSW 11 16 1011.8 - 6.4 - - - - - - -
29/01:30am 14.1 WSW 18 21 1011.8 - 1.2 - - - - - - -
29/01:00am 15.9 WNW 18 25 1011.4 - 0.4 - - - - - - -
29/12:30am 16.0 WNW 18 21 1011.4 - 0.4 - - - - - - -
29/12:00am 15.0 WNW 19 27 1011.6 - 0.4 Rain - - - - - -
 
Date/Time
WST
Temp
°C
Wind Pressure Rain since
9am
mm
Weather Cloud Vis
km
Sea
Height
m
Swell
Dir  Spd
kts
Gust
kts
hPa Trend Height
m
Period
s
Dir
28/11:30pm 16.1 W 17 21 1011.4 - 0.0 - - - - - - -
28/11:00pm 16.0 W 18 21 1011.3 - 0.0 - - - - - - -
28/10:30pm 16.2 W 17 20 1011.2 - 0.0 - - - - - - -
28/10:00pm 16.3 WNW 18 21 1011.2 - 0.0 - - - - - - -
28/09:30pm 16.3 W 18 21 1011.0 - 0.0 - - - - - - -
28/09:00pm 16.2 W 18 23 1011.0 - 0.0 - - - - - - -
28/08:30pm 16.3 WNW 18 21 1011.0 - 0.0 - - - - - - -
28/08:00pm 16.3 WNW 17 21 1010.8 - 0.0 - - - - - - -
28/07:30pm 16.4 W 17 21 1010.8 - 0.0 - - - - - - -
28/07:00pm 16.6 W 18 21 1010.4 - 0.0 - - - - - - -
28/06:30pm 16.5 W 18 21 1010.1 - 0.0 - - - - - - -
28/06:00pm 16.5 W 18 21 1009.8 - 0.0 - - - - - - -
28/05:30pm 16.3 W 19 21 1009.5 - 0.0 - - - - - - -
28/05:00pm 16.6 W 18 22 1009.3 - 0.0 - - - - - - -
28/04:30pm 16.8 W 20 23 1009.1 - 0.0 - - - - - - -
28/04:00pm 17.2 W 20 23 1008.7 - 0.0 - - - - - - -
28/03:30pm 17.3 WNW 19 22 1008.5 - 0.0 - - - - - - -
28/03:00pm 17.4 W 21 24 1008.2 - 0.0 - - - - - - -
28/02:30pm 17.2 W 21 25 1008.0 - 0.0 - - - - - - -
28/02:00pm 16.9 W 20 25 1007.9 - 0.0 - - - - - - -
28/01:30pm 17.3 WNW 20 23 1007.7 - 0.0 - - - - - - -
28/01:00pm 17.6 WNW 21 24 1007.9 - 0.0 - - - - - - -
28/12:30pm 17.2 WNW 21 25 1008.2 - 0.0 - - - - - - -
28/12:00pm 17.3 WNW 22 25 1008.6 - 0.0 - - - - - - -
28/11:30am 16.6 W 20 25 1008.9 - 0.0 - - - - - - -
28/11:00am 17.4 WNW 22 26 1008.9 - 0.0 - - - - - - -
28/10:30am 17.2 WNW 22 26 1009.1 - 0.0 - - - - - - -
28/10:00am 16.8 WNW 22 26 1008.9 - 0.0 - - - - - - -
28/09:30am 16.9 NW 22 26 1009.0 - 0.0 - - - - - - -
28/09:00am 16.5 NW 25 29 1008.7 - 14.2 Recent precip. - - - - - -
28/08:30am 16.6 NW 18 22 1008.8 - 14.2 - - - - - - -
28/08:00am 16.4 NW 25 32 1008.8 - 13.8 - - - - - - -
28/07:30am 16.8 NW 24 31 1008.3 - 13.8 - - - - - - -
28/07:07am 16.5 NNW 17 25 1008.5 - 13.8 - - - - - - -
28/07:00am 14.7 N 9 14 1008.6 - 13.8 - - - - - - -
28/06:30am 14.3 N 12 17 1008.6 - 13.8 - - - - - - -
28/06:00am 13.7 N 12 16 1008.5 - 12.6 Recent precip. - - - - - -
28/05:30am 12.8 NNE 12 16 1008.7 - 12.6 - - - - - - -
28/05:00am 12.5 NNE 11 18 1008.9 - 12.0 - - - - - - -
28/04:30am 13.2 N 16 22 1009.2 - 12.0 - - - - - - -
28/04:00am 12.4 NNE 17 24 1008.6 - 11.6 - - - - - - -
28/03:32am 12.3 NNE 15 25 1009.2 - 11.6 - - - - - - -
28/03:30am 12.4 NNE 15 22 1009.3 - 11.6 - - - - - - -
28/03:00am 12.5 N 14 19 1009.9 - 9.4 Rain - - - - - -
28/02:30am 12.5 NNE 17 23 1009.8 - 8.6 - - - - - - -
28/02:00am 12.5 NNE 17 24 1009.5 - 8.0 - - - - - - -
28/01:30am 12.9 NNE 17 23 1009.7 - 8.0 - - - - - - -
28/01:00am 13.0 NNE 17 22 1010.0 - 8.0 - - - - - - -
28/12:30am 12.8 NNE 15 20 1010.4 - 8.0 - - - - - - -
28/12:00am 13.0 NNE 15 19 1010.9 - 8.0 Recent precip. - - - - - -
 
Date/Time
WST
Temp
°C
Wind Pressure Rain since
9am
mm
Weather Cloud Vis
km
Sea
Height
m
Swell
Dir  Spd
kts
Gust
kts
hPa Trend Height
m
Period
s
Dir
27/11:30pm 13.3 NNE 15 19 1011.4 - 7.8 - - - - - - -
27/11:00pm 13.3 NNE 15 19 1011.7 - 7.8 - - - - - - -
27/10:30pm 13.5 NNE 13 17 1011.9 - 7.8 - - - - - - -
27/10:00pm 13.7 N 11 15 1012.1 - 7.8 - - - - - - -
27/09:30pm 14.2 N 12 19 1012.5 - 7.8 - - - - - - -
27/09:00pm 14.0 N 9 13 1012.7 - 7.8 - - - - - - -
27/08:30pm 14.4 N 13 18 1012.8 - 7.8 - - - - - - -
27/08:00pm 15.4 NNW 15 18 1012.9 - 7.8 - - - - - - -
27/07:30pm 14.8 NNW 14 17 1013.1 - 7.8 - - - - - - -
27/07:00pm 15.2 NNW 17 21 1013.0 - 7.8 - - - - - - -
27/06:30pm 15.4 NNW 14 17 1012.9 - 7.8 - - - - - - -

Other Formats:

Comma delimited format used in spreadsheet applications
http://www.bom.gov.au/fwo/IDW60701/IDW60701.94601.axf

JavaScript Object Notation format (JSON) in row-major order
http://www.bom.gov.au/fwo/IDW60701/IDW60701.94601.json